sensor_id;sensor_type;location;lat;lon;timestamp;temperature;humidity
18882;DHT22;9573;50.948;11.600;2023-09-18T00:01:09;16.90;99.90
18882;DHT22;9573;50.948;11.600;2023-09-18T00:03:36;16.90;99.90
18882;DHT22;9573;50.948;11.600;2023-09-18T00:06:03;16.80;99.90
18882;DHT22;9573;50.948;11.600;2023-09-18T00:08:31;16.80;99.90
18882;DHT22;9573;50.948;11.600;2023-09-18T00:11:00;16.80;99.90
18882;DHT22;9573;50.948;11.600;2023-09-18T00:13:27;16.80;99.90
18882;DHT22;9573;50.948;11.600;2023-09-18T00:15:55;16.70;99.90
18882;DHT22;9573;50.948;11.600;2023-09-18T00:18:25;16.70;99.90
18882;DHT22;9573;50.948;11.600;2023-09-18T00:20:52;16.60;99.90
18882;DHT22;9573;50.948;11.600;2023-09-18T00:23:20;16.60;99.90
18882;DHT22;9573;50.948;11.600;2023-09-18T00:25:47;16.50;99.90
18882;DHT22;9573;50.948;11.600;2023-09-18T00:28:15;16.50;99.90
18882;DHT22;9573;50.948;11.600;2023-09-18T00:30:47;16.50;99.90
18882;DHT22;9573;50.948;11.600;2023-09-18T00:33:16;16.50;99.90
18882;DHT22;9573;50.948;11.600;2023-09-18T00:35:46;16.40;99.90
18882;DHT22;9573;50.948;11.600;2023-09-18T00:38:13;16.40;99.90
18882;DHT22;9573;50.948;11.600;2023-09-18T00:40:41;16.40;99.90
18882;DHT22;9573;50.948;11.600;2023-09-18T00:43:08;16.30;99.90
18882;DHT22;9573;50.948;11.600;2023-09-18T00:45:40;16.30;99.90
18882;DHT22;9573;50.948;11.600;2023-09-18T00:48:09;16.30;99.90
18882;DHT22;9573;50.948;11.600;2023-09-18T00:50:37;16.30;99.90
18882;DHT22;9573;50.948;11.600;2023-09-18T00:53:07;16.20;99.90
18882;DHT22;9573;50.948;11.600;2023-09-18T00:55:36;16.20;99.90
18882;DHT22;9573;50.948;11.600;2023-09-18T00:58:05;16.20;99.90
18882;DHT22;9573;50.948;11.600;2023-09-18T01:00:32;16.20;99.90
18882;DHT22;9573;50.948;11.600;2023-09-18T01:03:01;16.20;99.90
18882;DHT22;9573;50.948;11.600;2023-09-18T01:05:31;16.10;99.90
18882;DHT22;9573;50.948;11.600;2023-09-18T01:07:59;16.10;99.90
18882;DHT22;9573;50.948;11.600;2023-09-18T01:10:32;16.10;99.90
18882;DHT22;9573;50.948;11.600;2023-09-18T01:13:04;16.00;99.90
18882;DHT22;9573;50.948;11.600;2023-09-18T01:15:35;16.00;99.90
18882;DHT22;9573;50.948;11.600;2023-09-18T01:18:09;16.00;99.90
18882;DHT22;9573;50.948;11.600;2023-09-18T01:20:36;16.00;99.90
18882;DHT22;9573;50.948;11.600;2023-09-18T01:23:05;16.00;99.90
18882;DHT22;9573;50.948;11.600;2023-09-18T01:25:32;16.00;99.90
18882;DHT22;9573;50.948;11.600;2023-09-18T01:28:02;15.90;99.90
18882;DHT22;9573;50.948;11.600;2023-09-18T01:30:30;15.90;99.90
18882;DHT22;9573;50.948;11.600;2023-09-18T01:32:58;15.80;99.90
18882;DHT22;9573;50.948;11.600;2023-09-18T01:35:26;15.80;99.90
18882;DHT22;9573;50.948;11.600;2023-09-18T01:37:55;15.80;99.90
18882;DHT22;9573;50.948;11.600;2023-09-18T01:40:24;15.80;99.90
18882;DHT22;9573;50.948;11.600;2023-09-18T01:42:52;15.80;99.90
18882;DHT22;9573;50.948;11.600;2023-09-18T01:45:19;15.80;99.90
18882;DHT22;9573;50.948;11.600;2023-09-18T01:47:46;15.70;99.90
18882;DHT22;9573;50.948;11.600;2023-09-18T01:50:13;15.70;99.90
18882;DHT22;9573;50.948;11.600;2023-09-18T01:52:40;15.70;99.90
18882;DHT22;9573;50.948;11.600;2023-09-18T01:55:08;15.70;99.90
18882;DHT22;9573;50.948;11.600;2023-09-18T01:57:40;15.70;99.90
18882;DHT22;9573;50.948;11.600;2023-09-18T02:00:09;15.70;99.90
18882;DHT22;9573;50.948;11.600;2023-09-18T02:02:37;15.70;99.90
18882;DHT22;9573;50.948;11.600;2023-09-18T02:05:08;15.70;99.90
18882;DHT22;9573;50.948;11.600;2023-09-18T02:07:36;15.60;99.90
18882;DHT22;9573;50.948;11.600;2023-09-18T02:10:04;15.60;99.90
18882;DHT22;9573;50.948;11.600;2023-09-18T02:12:32;15.60;99.90
18882;DHT22;9573;50.948;11.600;2023-09-18T02:15:00;15.60;99.90
18882;DHT22;9573;50.948;11.600;2023-09-18T02:17:31;15.60;99.90
18882;DHT22;9573;50.948;11.600;2023-09-18T02:19:58;15.60;99.90
18882;DHT22;9573;50.948;11.600;2023-09-18T02:22:26;15.60;99.90
18882;DHT22;9573;50.948;11.600;2023-09-18T02:24:53;15.60;99.90
18882;DHT22;9573;50.948;11.600;2023-09-18T02:27:20;15.50;99.90
18882;DHT22;9573;50.948;11.600;2023-09-18T02:29:47;15.50;99.90
18882;DHT22;9573;50.948;11.600;2023-09-18T02:32:17;15.50;99.90
18882;DHT22;9573;50.948;11.600;2023-09-18T02:34:45;15.50;99.90
18882;DHT22;9573;50.948;11.600;2023-09-18T02:37:12;15.40;99.90
18882;DHT22;9573;50.948;11.600;2023-09-18T02:39:39;15.40;99.90
18882;DHT22;9573;50.948;11.600;2023-09-18T02:42:06;15.40;99.90
18882;DHT22;9573;50.948;11.600;2023-09-18T02:44:33;15.40;99.90
18882;DHT22;9573;50.948;11.600;2023-09-18T02:47:01;15.40;99.90
18882;DHT22;9573;50.948;11.600;2023-09-18T02:49:29;15.40;99.90
18882;DHT22;9573;50.948;11.600;2023-09-18T02:51:57;15.30;99.90
18882;DHT22;9573;50.948;11.600;2023-09-18T02:54:24;15.30;99.90
18882;DHT22;9573;50.948;11.600;2023-09-18T02:56:52;15.30;99.90
18882;DHT22;9573;50.948;11.600;2023-09-18T02:59:19;15.30;99.90
18882;DHT22;9573;50.948;11.600;2023-09-18T03:01:46;15.30;99.90
18882;DHT22;9573;50.948;11.600;2023-09-18T03:04:13;15.20;99.90
18882;DHT22;9573;50.948;11.600;2023-09-18T03:06:42;15.20;99.90
18882;DHT22;9573;50.948;11.600;2023-09-18T03:09:09;15.20;99.90
18882;DHT22;9573;50.948;11.600;2023-09-18T03:11:36;15.10;99.90
18882;DHT22;9573;50.948;11.600;2023-09-18T03:14:03;15.10;99.90
18882;DHT22;9573;50.948;11.600;2023-09-18T03:16:30;15.10;99.90
18882;DHT22;9573;50.948;11.600;2023-09-18T03:18:58;15.10;99.90
18882;DHT22;9573;50.948;11.600;2023-09-18T03:21:25;15.00;99.90
18882;DHT22;9573;50.948;11.600;2023-09-18T03:23:54;15.00;99.90
18882;DHT22;9573;50.948;11.600;2023-09-18T03:26:23;15.00;99.90
18882;DHT22;9573;50.948;11.600;2023-09-18T03:28:50;14.90;99.90
18882;DHT22;9573;50.948;11.600;2023-09-18T03:31:17;14.90;99.90
18882;DHT22;9573;50.948;11.600;2023-09-18T03:33:44;14.90;99.90
18882;DHT22;9573;50.948;11.600;2023-09-18T03:36:12;14.90;99.90
18882;DHT22;9573;50.948;11.600;2023-09-18T03:38:40;14.80;99.90
18882;DHT22;9573;50.948;11.600;2023-09-18T03:41:08;14.80;99.90
18882;DHT22;9573;50.948;11.600;2023-09-18T03:43:35;14.80;99.90
18882;DHT22;9573;50.948;11.600;2023-09-18T03:46:03;14.80;99.90
18882;DHT22;9573;50.948;11.600;2023-09-18T03:48:31;14.70;99.90
18882;DHT22;9573;50.948;11.600;2023-09-18T03:51:03;14.70;99.90
18882;DHT22;9573;50.948;11.600;2023-09-18T03:53:35;14.70;99.90
18882;DHT22;9573;50.948;11.600;2023-09-18T03:56:03;14.70;99.90
18882;DHT22;9573;50.948;11.600;2023-09-18T03:58:38;14.60;99.90
18882;DHT22;9573;50.948;11.600;2023-09-18T04:01:12;14.60;99.90
18882;DHT22;9573;50.948;11.600;2023-09-18T04:03:39;14.60;99.90
18882;DHT22;9573;50.948;11.600;2023-09-18T04:06:07;14.60;99.90
18882;DHT22;9573;50.948;11.600;2023-09-18T04:08:34;14.60;99.90
18882;DHT22;9573;50.948;11.600;2023-09-18T04:11:01;14.60;99.90
18882;DHT22;9573;50.948;11.600;2023-09-18T04:13:29;14.60;99.90
18882;DHT22;9573;50.948;11.600;2023-09-18T04:16:00;14.60;99.90
18882;DHT22;9573;50.948;11.600;2023-09-18T04:18:29;14.60;99.90
18882;DHT22;9573;50.948;11.600;2023-09-18T04:20:56;14.60;99.90
18882;DHT22;9573;50.948;11.600;2023-09-18T04:23:24;14.60;99.90
18882;DHT22;9573;50.948;11.600;2023-09-18T04:25:54;14.50;99.90
18882;DHT22;9573;50.948;11.600;2023-09-18T04:28:22;14.50;99.90
18882;DHT22;9573;50.948;11.600;2023-09-18T04:30:49;14.50;99.90
18882;DHT22;9573;50.948;11.600;2023-09-18T04:33:19;14.50;99.90
18882;DHT22;9573;50.948;11.600;2023-09-18T04:35:47;14.50;99.90
18882;DHT22;9573;50.948;11.600;2023-09-18T04:38:14;14.50;99.90
18882;DHT22;9573;50.948;11.600;2023-09-18T04:40:42;14.50;99.90
18882;DHT22;9573;50.948;11.600;2023-09-18T04:43:09;14.50;99.90
18882;DHT22;9573;50.948;11.600;2023-09-18T04:45:36;14.50;99.90
18882;DHT22;9573;50.948;11.600;2023-09-18T04:48:04;14.50;99.90
18882;DHT22;9573;50.948;11.600;2023-09-18T04:50:35;14.50;99.90
18882;DHT22;9573;50.948;11.600;2023-09-18T04:53:02;14.50;99.90
18882;DHT22;9573;50.948;11.600;2023-09-18T04:55:32;14.50;99.90
18882;DHT22;9573;50.948;11.600;2023-09-18T04:57:59;14.50;99.90
18882;DHT22;9573;50.948;11.600;2023-09-18T05:00:26;14.50;99.90
18882;DHT22;9573;50.948;11.600;2023-09-18T05:02:55;14.50;99.90
18882;DHT22;9573;50.948;11.600;2023-09-18T05:05:22;14.50;99.90
18882;DHT22;9573;50.948;11.600;2023-09-18T05:07:51;14.50;99.90
18882;DHT22;9573;50.948;11.600;2023-09-18T05:10:18;14.60;99.90
18882;DHT22;9573;50.948;11.600;2023-09-18T05:12:45;14.60;99.90
18882;DHT22;9573;50.948;11.600;2023-09-18T05:15:13;14.60;99.90
18882;DHT22;9573;50.948;11.600;2023-09-18T05:17:43;14.70;99.90
18882;DHT22;9573;50.948;11.600;2023-09-18T05:20:15;14.80;99.90
18882;DHT22;9573;50.948;11.600;2023-09-18T05:22:43;14.80;99.90
18882;DHT22;9573;50.948;11.600;2023-09-18T05:25:12;14.80;99.90
18882;DHT22;9573;50.948;11.600;2023-09-18T05:27:40;14.90;99.90
18882;DHT22;9573;50.948;11.600;2023-09-18T05:30:12;15.00;99.90
18882;DHT22;9573;50.948;11.600;2023-09-18T05:32:41;15.10;99.90
18882;DHT22;9573;50.948;11.600;2023-09-18T05:35:08;15.40;99.90
18882;DHT22;9573;50.948;11.600;2023-09-18T05:37:38;15.70;99.90
18882;DHT22;9573;50.948;11.600;2023-09-18T05:40:07;16.10;99.90
18882;DHT22;9573;50.948;11.600;2023-09-18T05:42:37;16.90;99.90
18882;DHT22;9573;50.948;11.600;2023-09-18T05:45:05;18.50;99.90
18882;DHT22;9573;50.948;11.600;2023-09-18T05:47:33;19.70;99.90
18882;DHT22;9573;50.948;11.600;2023-09-18T05:50:04;20.50;99.90
18882;DHT22;9573;50.948;11.600;2023-09-18T05:52:32;21.10;99.90
18882;DHT22;9573;50.948;11.600;2023-09-18T05:54:59;21.90;99.90
18882;DHT22;9573;50.948;11.600;2023-09-18T05:57:27;22.50;99.90
18882;DHT22;9573;50.948;11.600;2023-09-18T05:59:56;22.00;99.90
18882;DHT22;9573;50.948;11.600;2023-09-18T06:02:23;22.70;99.90
18882;DHT22;9573;50.948;11.600;2023-09-18T06:04:54;24.20;99.90
18882;DHT22;9573;50.948;11.600;2023-09-18T06:07:23;25.60;99.90
18882;DHT22;9573;50.948;11.600;2023-09-18T06:09:51;26.70;99.90
18882;DHT22;9573;50.948;11.600;2023-09-18T06:12:18;27.50;99.90
18882;DHT22;9573;50.948;11.600;2023-09-18T06:14:45;28.00;99.90
18882;DHT22;9573;50.948;11.600;2023-09-18T06:17:15;27.30;99.90
18882;DHT22;9573;50.948;11.600;2023-09-18T06:19:43;25.80;99.90
18882;DHT22;9573;50.948;11.600;2023-09-18T06:22:11;24.40;99.90
18882;DHT22;9573;50.948;11.600;2023-09-18T06:24:38;23.40;99.90
18882;DHT22;9573;50.948;11.600;2023-09-18T06:27:06;22.60;99.90
18882;DHT22;9573;50.948;11.600;2023-09-18T06:29:33;22.00;99.90
18882;DHT22;9573;50.948;11.600;2023-09-18T06:32:03;21.60;99.90
18882;DHT22;9573;50.948;11.600;2023-09-18T06:34:33;21.20;99.90
18882;DHT22;9573;50.948;11.600;2023-09-18T06:37:00;20.90;99.90
18882;DHT22;9573;50.948;11.600;2023-09-18T06:39:29;20.70;99.90
18882;DHT22;9573;50.948;11.600;2023-09-18T06:41:56;20.50;99.90
18882;DHT22;9573;50.948;11.600;2023-09-18T06:44:23;20.40;99.90
18882;DHT22;9573;50.948;11.600;2023-09-18T06:46:50;20.30;99.90
18882;DHT22;9573;50.948;11.600;2023-09-18T06:49:18;20.00;99.90
18882;DHT22;9573;50.948;11.600;2023-09-18T06:51:46;19.90;99.90
18882;DHT22;9573;50.948;11.600;2023-09-18T06:54:14;19.80;99.90
18882;DHT22;9573;50.948;11.600;2023-09-18T06:56:41;19.80;99.90
18882;DHT22;9573;50.948;11.600;2023-09-18T06:59:09;19.60;99.90
18882;DHT22;9573;50.948;11.600;2023-09-18T07:01:38;19.60;99.90
18882;DHT22;9573;50.948;11.600;2023-09-18T07:04:06;19.50;99.90
18882;DHT22;9573;50.948;11.600;2023-09-18T07:06:33;19.60;99.90
18882;DHT22;9573;50.948;11.600;2023-09-18T07:09:02;19.60;99.90
18882;DHT22;9573;50.948;11.600;2023-09-18T07:11:32;19.70;99.90
18882;DHT22;9573;50.948;11.600;2023-09-18T07:13:59;19.70;99.90
18882;DHT22;9573;50.948;11.600;2023-09-18T07:16:28;19.80;99.90
18882;DHT22;9573;50.948;11.600;2023-09-18T07:18:55;20.00;99.90
18882;DHT22;9573;50.948;11.600;2023-09-18T07:21:22;20.20;99.90
18882;DHT22;9573;50.948;11.600;2023-09-18T07:23:49;20.40;99.90
18882;DHT22;9573;50.948;11.600;2023-09-18T07:26:18;20.70;99.90
18882;DHT22;9573;50.948;11.600;2023-09-18T07:28:45;20.90;99.90
18882;DHT22;9573;50.948;11.600;2023-09-18T07:31:12;21.20;99.90
18882;DHT22;9573;50.948;11.600;2023-09-18T07:33:40;21.60;99.90
18882;DHT22;9573;50.948;11.600;2023-09-18T07:36:07;22.20;99.90
18882;DHT22;9573;50.948;11.600;2023-09-18T07:38:35;23.10;99.90
18882;DHT22;9573;50.948;11.600;2023-09-18T07:41:03;23.90;99.90
18882;DHT22;9573;50.948;11.600;2023-09-18T07:43:31;24.30;99.90
18882;DHT22;9573;50.948;11.600;2023-09-18T07:45:58;25.20;99.90
18882;DHT22;9573;50.948;11.600;2023-09-18T07:48:27;25.70;99.90
18882;DHT22;9573;50.948;11.600;2023-09-18T07:50:54;25.80;99.90
18882;DHT22;9573;50.948;11.600;2023-09-18T07:53:21;25.40;99.90
18882;DHT22;9573;50.948;11.600;2023-09-18T07:55:55;24.90;99.90
18882;DHT22;9573;50.948;11.600;2023-09-18T07:58:24;24.50;99.90
18882;DHT22;9573;50.948;11.600;2023-09-18T08:00:54;24.20;99.90
18882;DHT22;9573;50.948;11.600;2023-09-18T08:03:22;24.00;99.90
18882;DHT22;9573;50.948;11.600;2023-09-18T08:05:51;23.80;99.90
18882;DHT22;9573;50.948;11.600;2023-09-18T08:08:19;23.60;99.90
18882;DHT22;9573;50.948;11.600;2023-09-18T08:10:47;23.40;99.90
18882;DHT22;9573;50.948;11.600;2023-09-18T08:13:14;23.30;99.90
18882;DHT22;9573;50.948;11.600;2023-09-18T08:15:42;23.30;99.90
18882;DHT22;9573;50.948;11.600;2023-09-18T08:18:10;23.50;99.90
18882;DHT22;9573;50.948;11.600;2023-09-18T08:20:40;23.70;99.90
18882;DHT22;9573;50.948;11.600;2023-09-18T08:23:08;23.80;99.90
18882;DHT22;9573;50.948;11.600;2023-09-18T08:25:36;23.80;99.90
18882;DHT22;9573;50.948;11.600;2023-09-18T08:28:03;23.80;99.90
18882;DHT22;9573;50.948;11.600;2023-09-18T08:30:32;23.80;99.90
18882;DHT22;9573;50.948;11.600;2023-09-18T08:32:59;23.80;99.90
18882;DHT22;9573;50.948;11.600;2023-09-18T08:35:28;23.60;99.90
18882;DHT22;9573;50.948;11.600;2023-09-18T08:37:55;23.60;99.90
18882;DHT22;9573;50.948;11.600;2023-09-18T08:40:23;23.50;99.90
18882;DHT22;9573;50.948;11.600;2023-09-18T08:42:52;23.50;99.90
18882;DHT22;9573;50.948;11.600;2023-09-18T08:45:25;23.60;99.90
18882;DHT22;9573;50.948;11.600;2023-09-18T08:47:55;23.60;99.90
18882;DHT22;9573;50.948;11.600;2023-09-18T08:50:23;23.70;99.90
18882;DHT22;9573;50.948;11.600;2023-09-18T08:52:52;23.70;99.90
18882;DHT22;9573;50.948;11.600;2023-09-18T08:55:20;23.70;99.90
18882;DHT22;9573;50.948;11.600;2023-09-18T08:57:48;23.70;99.90
18882;DHT22;9573;50.948;11.600;2023-09-18T09:00:16;23.70;99.90
18882;DHT22;9573;50.948;11.600;2023-09-18T09:02:44;23.60;99.90
18882;DHT22;9573;50.948;11.600;2023-09-18T09:05:14;23.50;99.90
18882;DHT22;9573;50.948;11.600;2023-09-18T09:07:41;23.40;99.90
18882;DHT22;9573;50.948;11.600;2023-09-18T09:10:10;23.30;99.90
18882;DHT22;9573;50.948;11.600;2023-09-18T09:12:47;23.30;99.90
18882;DHT22;9573;50.948;11.600;2023-09-18T09:15:14;23.40;99.90
18882;DHT22;9573;50.948;11.600;2023-09-18T09:17:42;23.60;99.90
18882;DHT22;9573;50.948;11.600;2023-09-18T09:20:10;23.90;99.90
18882;DHT22;9573;50.948;11.600;2023-09-18T09:22:39;24.30;99.90
18882;DHT22;9573;50.948;11.600;2023-09-18T09:28:01;24.70;99.90
18882;DHT22;9573;50.948;11.600;2023-09-18T09:30:31;25.50;99.90
18882;DHT22;9573;50.948;11.600;2023-09-18T09:32:59;25.90;99.90
18882;DHT22;9573;50.948;11.600;2023-09-18T09:35:30;26.20;99.90
18882;DHT22;9573;50.948;11.600;2023-09-18T09:38:00;26.60;99.90
18882;DHT22;9573;50.948;11.600;2023-09-18T09:40:30;26.90;99.90
18882;DHT22;9573;50.948;11.600;2023-09-18T09:42:58;27.10;99.90
18882;DHT22;9573;50.948;11.600;2023-09-18T09:45:31;27.20;99.90
18882;DHT22;9573;50.948;11.600;2023-09-18T09:48:02;27.10;99.90
18882;DHT22;9573;50.948;11.600;2023-09-18T09:50:31;26.90;99.90
18882;DHT22;9573;50.948;11.600;2023-09-18T09:52:59;26.60;99.90
18882;DHT22;9573;50.948;11.600;2023-09-18T09:55:28;26.40;99.90
18882;DHT22;9573;50.948;11.600;2023-09-18T09:57:58;26.30;99.90
18882;DHT22;9573;50.948;11.600;2023-09-18T10:00:32;26.20;99.90
18882;DHT22;9573;50.948;11.600;2023-09-18T10:03:09;26.00;99.90
18882;DHT22;9573;50.948;11.600;2023-09-18T10:05:39;25.90;99.90
18882;DHT22;9573;50.948;11.600;2023-09-18T10:08:12;25.70;99.90
18882;DHT22;9573;50.948;11.600;2023-09-18T10:10:46;25.50;99.90
18882;DHT22;9573;50.948;11.600;2023-09-18T10:13:18;25.40;99.90
18882;DHT22;9573;50.948;11.600;2023-09-18T10:15:49;25.20;99.90
18882;DHT22;9573;50.948;11.600;2023-09-18T10:18:21;25.10;99.90
18882;DHT22;9573;50.948;11.600;2023-09-18T10:20:58;25.10;99.90
18882;DHT22;9573;50.948;11.600;2023-09-18T10:23:41;25.00;99.90
18882;DHT22;9573;50.948;11.600;2023-09-18T10:26:18;24.90;99.90
18882;DHT22;9573;50.948;11.600;2023-09-18T10:28:52;24.60;99.90
18882;DHT22;9573;50.948;11.600;2023-09-18T10:31:24;25.00;99.90
18882;DHT22;9573;50.948;11.600;2023-09-18T10:33:54;25.10;99.90
18882;DHT22;9573;50.948;11.600;2023-09-18T10:36:22;25.40;99.90
18882;DHT22;9573;50.948;11.600;2023-09-18T10:38:51;25.60;99.90
18882;DHT22;9573;50.948;11.600;2023-09-18T10:41:20;25.80;99.90
18882;DHT22;9573;50.948;11.600;2023-09-18T10:43:51;25.80;99.90
18882;DHT22;9573;50.948;11.600;2023-09-18T10:46:23;25.90;99.90
18882;DHT22;9573;50.948;11.600;2023-09-18T10:48:51;26.00;99.90
18882;DHT22;9573;50.948;11.600;2023-09-18T10:51:20;25.90;99.90
18882;DHT22;9573;50.948;11.600;2023-09-18T10:53:48;25.90;99.90
18882;DHT22;9573;50.948;11.600;2023-09-18T10:56:15;25.70;99.90
18882;DHT22;9573;50.948;11.600;2023-09-18T10:58:43;25.60;99.90
18882;DHT22;9573;50.948;11.600;2023-09-18T11:01:12;25.50;99.90
18882;DHT22;9573;50.948;11.600;2023-09-18T11:03:40;25.50;99.90
18882;DHT22;9573;50.948;11.600;2023-09-18T11:06:10;25.60;99.90
18882;DHT22;9573;50.948;11.600;2023-09-18T11:08:43;25.60;99.90
18882;DHT22;9573;50.948;11.600;2023-09-18T11:11:16;25.60;99.90
18882;DHT22;9573;50.948;11.600;2023-09-18T11:13:47;25.60;99.90
18882;DHT22;9573;50.948;11.600;2023-09-18T11:16:19;25.50;99.90
18882;DHT22;9573;50.948;11.600;2023-09-18T11:19:11;25.40;99.90
18882;DHT22;9573;50.948;11.600;2023-09-18T11:21:40;25.20;99.90
18882;DHT22;9573;50.948;11.600;2023-09-18T11:24:15;25.20;99.90
18882;DHT22;9573;50.948;11.600;2023-09-18T11:26:45;25.20;99.90
18882;DHT22;9573;50.948;11.600;2023-09-18T11:29:15;25.20;99.90
18882;DHT22;9573;50.948;11.600;2023-09-18T11:31:47;25.20;99.90
18882;DHT22;9573;50.948;11.600;2023-09-18T11:34:20;25.20;99.90
18882;DHT22;9573;50.948;11.600;2023-09-18T11:36:49;25.30;99.90
18882;DHT22;9573;50.948;11.600;2023-09-18T11:39:33;25.40;99.90
18882;DHT22;9573;50.948;11.600;2023-09-18T11:42:12;25.30;99.90
18882;DHT22;9573;50.948;11.600;2023-09-18T11:44:43;25.20;99.90
18882;DHT22;9573;50.948;11.600;2023-09-18T11:47:15;25.20;99.90
18882;DHT22;9573;50.948;11.600;2023-09-18T11:49:47;25.20;99.90
18882;DHT22;9573;50.948;11.600;2023-09-18T11:52:21;25.10;99.90
18882;DHT22;9573;50.948;11.600;2023-09-18T11:54:49;25.00;99.90
18882;DHT22;9573;50.948;11.600;2023-09-18T11:57:17;24.90;99.90
18882;DHT22;9573;50.948;11.600;2023-09-18T11:59:45;24.60;99.90
18882;DHT22;9573;50.948;11.600;2023-09-18T12:02:14;24.50;99.90
18882;DHT22;9573;50.948;11.600;2023-09-18T12:04:53;24.20;99.90
18882;DHT22;9573;50.948;11.600;2023-09-18T12:07:20;24.10;99.90
18882;DHT22;9573;50.948;11.600;2023-09-18T12:09:48;24.20;99.90
18882;DHT22;9573;50.948;11.600;2023-09-18T12:12:16;24.30;99.90
18882;DHT22;9573;50.948;11.600;2023-09-18T12:14:43;24.40;99.90
18882;DHT22;9573;50.948;11.600;2023-09-18T12:17:15;24.60;99.90
18882;DHT22;9573;50.948;11.600;2023-09-18T12:19:53;24.80;99.90
18882;DHT22;9573;50.948;11.600;2023-09-18T12:22:27;25.00;99.90
18882;DHT22;9573;50.948;11.600;2023-09-18T12:25:09;25.20;99.90
18882;DHT22;9573;50.948;11.600;2023-09-18T12:27:37;25.20;99.90
18882;DHT22;9573;50.948;11.600;2023-09-18T12:30:06;25.20;99.90
18882;DHT22;9573;50.948;11.600;2023-09-18T12:32:37;25.10;99.90
18882;DHT22;9573;50.948;11.600;2023-09-18T12:35:06;25.20;99.90
18882;DHT22;9573;50.948;11.600;2023-09-18T12:37:35;25.20;99.90
18882;DHT22;9573;50.948;11.600;2023-09-18T12:40:20;25.10;99.90
18882;DHT22;9573;50.948;11.600;2023-09-18T12:42:48;25.00;99.90
18882;DHT22;9573;50.948;11.600;2023-09-18T12:45:15;24.90;99.90
18882;DHT22;9573;50.948;11.600;2023-09-18T12:47:44;24.80;99.90
18882;DHT22;9573;50.948;11.600;2023-09-18T12:50:13;24.70;99.90
18882;DHT22;9573;50.948;11.600;2023-09-18T12:52:40;24.60;99.90
18882;DHT22;9573;50.948;11.600;2023-09-18T12:55:08;24.60;99.90
18882;DHT22;9573;50.948;11.600;2023-09-18T12:57:36;24.50;99.90
18882;DHT22;9573;50.948;11.600;2023-09-18T13:00:09;24.40;99.90
18882;DHT22;9573;50.948;11.600;2023-09-18T13:02:38;24.30;99.90
18882;DHT22;9573;50.948;11.600;2023-09-18T13:05:08;24.30;99.90
18882;DHT22;9573;50.948;11.600;2023-09-18T13:07:43;24.10;99.90
18882;DHT22;9573;50.948;11.600;2023-09-18T13:10:13;24.10;99.90
18882;DHT22;9573;50.948;11.600;2023-09-18T13:12:42;23.90;99.90
18882;DHT22;9573;50.948;11.600;2023-09-18T13:15:12;23.90;99.90
18882;DHT22;9573;50.948;11.600;2023-09-18T13:17:41;23.70;99.90
18882;DHT22;9573;50.948;11.600;2023-09-18T13:20:13;23.60;99.90
18882;DHT22;9573;50.948;11.600;2023-09-18T13:22:47;23.40;99.90
18882;DHT22;9573;50.948;11.600;2023-09-18T13:25:19;23.30;99.90
18882;DHT22;9573;50.948;11.600;2023-09-18T13:27:47;23.20;99.90
18882;DHT22;9573;50.948;11.600;2023-09-18T13:30:15;23.10;99.90
18882;DHT22;9573;50.948;11.600;2023-09-18T13:32:44;23.00;99.90
18882;DHT22;9573;50.948;11.600;2023-09-18T13:35:12;22.90;99.90
18882;DHT22;9573;50.948;11.600;2023-09-18T13:37:40;22.70;99.90
18882;DHT22;9573;50.948;11.600;2023-09-18T13:40:08;22.60;99.90
18882;DHT22;9573;50.948;11.600;2023-09-18T13:42:36;22.50;99.90
18882;DHT22;9573;50.948;11.600;2023-09-18T13:45:05;22.50;99.90
18882;DHT22;9573;50.948;11.600;2023-09-18T13:47:33;22.40;99.90
18882;DHT22;9573;50.948;11.600;2023-09-18T13:50:01;22.40;99.90
18882;DHT22;9573;50.948;11.600;2023-09-18T13:52:32;22.40;99.90
18882;DHT22;9573;50.948;11.600;2023-09-18T13:55:01;22.30;99.90
18882;DHT22;9573;50.948;11.600;2023-09-18T13:57:31;22.20;99.90
18882;DHT22;9573;50.948;11.600;2023-09-18T14:00:00;22.20;99.90
18882;DHT22;9573;50.948;11.600;2023-09-18T14:02:30;22.20;99.90
18882;DHT22;9573;50.948;11.600;2023-09-18T14:04:58;22.20;99.90
18882;DHT22;9573;50.948;11.600;2023-09-18T14:07:25;22.20;99.90
18882;DHT22;9573;50.948;11.600;2023-09-18T14:09:53;22.10;99.90
18882;DHT22;9573;50.948;11.600;2023-09-18T14:12:21;22.10;99.90
18882;DHT22;9573;50.948;11.600;2023-09-18T14:14:48;22.10;99.90
18882;DHT22;9573;50.948;11.600;2023-09-18T14:17:16;22.10;99.90
18882;DHT22;9573;50.948;11.600;2023-09-18T14:19:47;22.10;99.90
18882;DHT22;9573;50.948;11.600;2023-09-18T14:22:14;22.10;99.90
18882;DHT22;9573;50.948;11.600;2023-09-18T14:24:41;22.10;99.90
18882;DHT22;9573;50.948;11.600;2023-09-18T14:27:10;22.10;99.90
18882;DHT22;9573;50.948;11.600;2023-09-18T14:29:38;22.00;99.90
18882;DHT22;9573;50.948;11.600;2023-09-18T14:32:05;22.10;99.90
18882;DHT22;9573;50.948;11.600;2023-09-18T14:34:34;22.20;99.90
18882;DHT22;9573;50.948;11.600;2023-09-18T14:37:02;22.30;99.90
18882;DHT22;9573;50.948;11.600;2023-09-18T14:39:30;22.40;99.90
18882;DHT22;9573;50.948;11.600;2023-09-18T14:41:59;22.50;99.90
18882;DHT22;9573;50.948;11.600;2023-09-18T14:44:30;22.50;99.90
18882;DHT22;9573;50.948;11.600;2023-09-18T14:46:58;22.60;99.90
18882;DHT22;9573;50.948;11.600;2023-09-18T14:49:27;22.60;99.90
18882;DHT22;9573;50.948;11.600;2023-09-18T14:51:55;22.70;99.90
18882;DHT22;9573;50.948;11.600;2023-09-18T14:54:22;22.80;99.90
18882;DHT22;9573;50.948;11.600;2023-09-18T14:56:50;22.90;99.90
18882;DHT22;9573;50.948;11.600;2023-09-18T14:59:17;22.90;99.90
18882;DHT22;9573;50.948;11.600;2023-09-18T15:01:46;23.00;99.90
18882;DHT22;9573;50.948;11.600;2023-09-18T15:04:13;23.00;99.90
18882;DHT22;9573;50.948;11.600;2023-09-18T15:06:40;23.00;99.90
18882;DHT22;9573;50.948;11.600;2023-09-18T15:09:07;23.10;99.90
18882;DHT22;9573;50.948;11.600;2023-09-18T15:11:35;23.10;99.90
18882;DHT22;9573;50.948;11.600;2023-09-18T15:14:02;23.20;99.90
18882;DHT22;9573;50.948;11.600;2023-09-18T15:16:29;23.30;99.90
18882;DHT22;9573;50.948;11.600;2023-09-18T15:18:58;23.30;99.90
18882;DHT22;9573;50.948;11.600;2023-09-18T15:21:28;23.20;99.90
18882;DHT22;9573;50.948;11.600;2023-09-18T15:23:55;23.10;99.90
18882;DHT22;9573;50.948;11.600;2023-09-18T15:26:22;23.00;99.90
18882;DHT22;9573;50.948;11.600;2023-09-18T15:28:50;23.00;99.90
18882;DHT22;9573;50.948;11.600;2023-09-18T15:31:17;22.90;99.90
18882;DHT22;9573;50.948;11.600;2023-09-18T15:33:44;22.80;99.90
18882;DHT22;9573;50.948;11.600;2023-09-18T15:36:13;22.70;99.90
18882;DHT22;9573;50.948;11.600;2023-09-18T15:38:40;22.60;99.90
18882;DHT22;9573;50.948;11.600;2023-09-18T15:41:08;22.50;99.90
18882;DHT22;9573;50.948;11.600;2023-09-18T15:43:35;22.40;99.90